Carnegie, PA (15106)

2:06 PM EST on February 26, 2017 (GMT -0500)
Greentree | | Change Station

Elev 1135 ft 40.41 °N, 80.06 °W | Updated 2 seconds ago

Clear
Clear
36.5 °F
Feels Like 33 °F
N
4.0
Wind Variable Wind from South
Gusts 4.9 mph

Today
High -- | Low -- °F
--% Chance of Precip.
Yesterday
High -- | Low -- °F
Precip. -- in
Pressure 30.18 in
Visibility 10.0 miles
Clouds Few 3900 ft
Windchill 33 °F
Dew Point 19 °F
Humidity 48%
Rainfall 0.00 in
Snow Depth Not available.
6:58 AM 6:08 PM
New Moon, 0% visible
METAR KAGC 261853Z 24011KT 10SM FEW039 02/M08 A3013 RMK AO2 SLP220 T00221083
Pressure 30.18 in
Visibility 10.0 miles
Clouds Few 3900 ft
Windchill 33 °F
Dew Point 19 °F
Humidity 48%
Rainfall 0.00 in
Snow Depth Not available.
6:58 AM 6:08 PM
New Moon, 0% visible
METAR KAGC 261853Z 24011KT 10SM FEW039 02/M08 A3013 RMK AO2 SLP220 T00221083

Get Your Daily Forecast Email!

Thanks for signing up!

Be on the lookout for a verification email in your inbox.

You'll start receiving the daily forecast at 8 AM.

×

10-Day Weather Forecast

Almanac

Astronomy

Feb. 26, 2017 Rise Set
Actual Time
Civil Twilight
Nautical Twilight
Astronomical Twilight
Moon
Length of Visible Light
Length of Day
Tomorrow will be .
, % of the Moon is Illuminated

Today's Extremes

State Highs State Lows

Community

WunderPhotos

Upload Photos

1,962,540 photos uploaded!

WunderBlog® & News

Nearby

Air Quality

  Air Quality AQ Index Pollutant
Not available.

Snow Depth

Station Depth Elevation

Earthquake Activity

City Distance Mag. Time & Date
Minimum magnitude displayed is 2.5.

Coastal Water Temperatures

Place Temperature

Stations

Nearby Weather Stations

Station Location Temp. Windchill Dew Point Humidity Wind Precip. Elev Updated Type
                   

Watches & Warnings

There are currently no watches in effect.